Time;durP1;ratioP1;P1;durP2;ratioP2;P2;SDS_P1;SDS_P2;PMS_P1;PMS_P2;Temp;Humidity;BMP_temperature;BMP_pressure;BME280_temperature;BME280_humidity;BME280_pressure;Samples;Min_cycle;Max_cycle;Signal;HPM_P1;HPM_P2
2022/03/19 00:00:06;;;;;;;142.50;65.50;;;;;;;-1.22;30.61;101434.23;106042;1274;112770;-71
2022/03/19 00:02:54;;;;;;;143.30;66.70;;;;;;;-1.23;30.90;101433.88;107872;1274;97029;-71
2022/03/19 00:05:22;;;;;;;145.60;67.10;;;;;;;-1.26;30.73;101437.33;106024;1274;107717;-71
2022/03/19 00:07:50;;;;;;;144.50;67.10;;;;;;;-1.28;30.84;101433.46;105926;1274;100704;-73
2022/03/19 00:10:21;;;;;;;142.00;66.20;;;;;;;-1.29;30.94;101438.50;105919;1274;99234;-71
2022/03/19 00:12:49;;;;;;;142.30;67.00;;;;;;;-1.30;31.06;101435.35;105893;1274;112851;-71
2022/03/19 00:15:17;;;;;;;134.40;64.40;;;;;;;-1.34;30.91;101431.98;106000;1274;98408;-73
2022/03/19 00:17:44;;;;;;;130.60;62.20;;;;;;;-1.36;30.94;101429.52;105930;1274;107631;-71
2022/03/19 00:20:13;;;;;;;135.00;60.80;;;;;;;-1.39;31.23;101426.69;106000;1274;99366;-72
2022/03/19 00:22:41;;;;;;;133.90;60.20;;;;;;;-1.43;30.95;101423.14;106025;1274;99234;-71
2022/03/19 00:25:12;;;;;;;114.30;52.00;;;;;;;-1.45;31.12;101418.43;106137;1274;111719;-70
2022/03/19 00:27:40;;;;;;;100.50;48.80;;;;;;;-1.47;31.17;101421.18;106137;1274;96684;-71
2022/03/19 00:30:10;;;;;;;92.50;43.20;;;;;;;-1.48;31.02;101419.25;106105;1274;108617;-70
2022/03/19 00:32:38;;;;;;;87.50;41.10;;;;;;;-1.47;31.26;101410.05;106118;1274;99371;-69
2022/03/19 00:35:07;;;;;;;87.90;40.90;;;;;;;-1.45;31.34;101409.39;106116;1274;98003;-69
2022/03/19 00:37:46;;;;;;;84.40;39.40;;;;;;;-1.44;31.56;101409.92;106131;1273;112892;-67
2022/03/19 00:40:17;;;;;;;86.90;40.30;;;;;;;-1.43;31.47;101409.75;106165;1274;99259;-70
2022/03/19 00:42:48;;;;;;;83.90;40.20;;;;;;;-1.43;31.55;101406.80;106124;1274;107700;-73
2022/03/19 00:45:17;;;;;;;79.60;38.40;;;;;;;-1.43;31.48;101404.54;106162;1274;96663;-72
2022/03/19 00:47:45;;;;;;;81.70;38.80;;;;;;;-1.45;31.65;101398.59;106184;1274;96636;-74
2022/03/19 00:50:13;;;;;;;77.60;36.20;;;;;;;-1.45;31.58;101398.77;106117;1274;112811;-71
2022/03/19 00:52:41;;;;;;;76.50;37.70;;;;;;;-1.45;31.57;101394.94;106140;1274;99340;-71
2022/03/19 00:55:09;;;;;;;71.40;36.40;;;;;;;-1.44;31.76;101396.88;106134;1274;107790;-72
2022/03/19 00:57:47;;;;;;;78.10;38.50;;;;;;;-1.43;31.82;101395.30;106101;1274;99134;-72
2022/03/19 01:00:23;;;;;;;79.90;38.70;;;;;;;-1.41;31.92;101392.54;106145;1274;99222;-70
2022/03/19 01:02:53;;;;;;;85.20;40.10;;;;;;;-1.42;31.85;101395.67;106141;1274;112701;-71
2022/03/19 01:05:23;;;;;;;83.50;39.60;;;;;;;-1.42;32.05;101397.23;106189;1274;99333;-70
2022/03/19 01:07:55;;;;;;;83.20;40.10;;;;;;;-1.42;31.67;101401.05;106041;1274;109072;-72
2022/03/19 01:10:26;;;;;;;77.10;39.10;;;;;;;-1.44;31.81;101402.61;106030;1274;99244;-72
2022/03/19 01:12:56;;;;;;;86.20;42.00;;;;;;;-1.45;31.89;101403.29;106040;1274;99189;-73
2022/03/19 01:15:25;;;;;;;80.80;42.10;;;;;;;-1.46;32.17;101401.88;106051;1274;112238;-72
2022/03/19 01:17:53;;;;;;;92.10;42.60;;;;;;;-1.49;32.35;101398.71;105961;1275;97691;-71
2022/03/19 01:20:21;;;;;;;87.30;42.00;;;;;;;-1.54;32.18;101397.59;105990;1274;107713;-73
2022/03/19 01:22:49;;;;;;;87.00;43.90;;;;;;;-1.56;32.36;101398.61;106038;1274;99223;-67
2022/03/19 01:25:19;;;;;;;85.80;44.80;;;;;;;-1.57;32.09;101396.66;106082;1274;99199;-74
2022/03/19 01:27:49;;;;;;;88.10;43.50;;;;;;;-1.59;32.29;101397.67;106113;1274;114029;-67
2022/03/19 01:30:19;;;;;;;88.80;44.80;;;;;;;-1.61;32.01;101400.08;106162;1274;99234;-71
2022/03/19 01:32:48;;;;;;;83.60;42.80;;;;;;;-1.65;32.40;101396.74;106065;1274;107805;-72
2022/03/19 01:35:19;;;;;;;85.10;41.50;;;;;;;-1.69;32.28;101398.40;105916;1274;96681;-69
2022/03/19 01:37:48;;;;;;;85.80;41.60;;;;;;;-1.72;32.47;101399.23;106072;1274;99907;-69
2022/03/19 01:40:19;;;;;;;87.00;41.70;;;;;;;-1.76;32.33;101404.22;106036;1274;113210;-71
2022/03/19 01:42:50;;;;;;;86.30;41.40;;;;;;;-1.82;32.16;101401.00;106027;1274;99891;-69
2022/03/19 01:45:22;;;;;;;85.20;42.60;;;;;;;-1.85;31.92;101400.08;106031;1274;107564;-68
2022/03/19 01:47:51;;;;;;;86.30;42.00;;;;;;;-1.90;32.14;101394.95;106036;1274;99369;-70
2022/03/19 01:50:24;;;;;;;92.90;41.60;;;;;;;-1.93;32.36;101388.82;106106;1274;99899;-69
2022/03/19 01:52:54;;;;;;;85.50;40.20;;;;;;;-1.95;32.34;101390.36;105983;1274;112891;-70
2022/03/19 01:55:25;;;;;;;87.00;42.20;;;;;;;-1.97;32.47;101385.29;106104;1274;96596;-75
2022/03/19 01:57:56;;;;;;;79.40;39.80;;;;;;;-1.98;32.30;101382.99;106008;1274;107872;-71
2022/03/19 02:00:25;;;;;;;84.30;40.20;;;;;;;-2.00;32.42;101380.52;106116;1273;96618;-69
2022/03/19 02:02:54;;;;;;;82.20;40.00;;;;;;;-2.01;32.38;101381.03;106137;1273;99798;-69
2022/03/19 02:05:24;;;;;;;86.00;42.20;;;;;;;-2.03;32.64;101374.91;106152;1273;113985;-69
2022/03/19 02:07:53;;;;;;;87.10;41.50;;;;;;;-2.05;32.67;101376.45;106115;1273;99243;-68
2022/03/19 02:10:23;;;;;;;89.60;40.50;;;;;;;-2.10;32.51;101379.16;106116;1273;107709;-69
2022/03/19 02:12:53;;;;;;;80.10;39.30;;;;;;;-2.12;32.51;101381.91;106125;1273;96639;-71
2022/03/19 02:15:21;;;;;;;82.30;40.50;;;;;;;-2.14;32.69;101380.30;106093;1274;99938;-71
2022/03/19 02:17:50;;;;;;;83.40;39.90;;;;;;;-2.16;32.55;101385.48;106104;1273;112741;-72
2022/03/19 02:20:19;;;;;;;82.60;40.40;;;;;;;-2.17;32.63;101387.21;106141;1273;99338;-72
2022/03/19 02:25:47;;;;;;;85.50;38.80;;;;;;;-2.19;32.72;101387.68;105965;1273;100043;-72
2022/03/19 02:28:15;;;;;;;79.80;38.90;;;;;;;-2.23;32.61;101381.54;106160;1273;99324;-72
2022/03/19 02:30:43;;;;;;;80.00;41.20;;;;;;;-2.26;32.74;101381.68;106136;1270;112455;-71
2022/03/19 02:33:11;;;;;;;92.10;43.30;;;;;;;-2.27;32.79;101384.45;106127;1273;96635;-70
2022/03/19 02:35:39;;;;;;;83.60;37.90;;;;;;;-2.29;32.78;101381.28;106125;1273;105443;-71
2022/03/19 02:38:07;;;;;;;83.30;40.50;;;;;;;-2.29;32.85;101383.89;106144;1273;99254;-71
2022/03/19 02:40:35;;;;;;;84.00;41.10;;;;;;;-2.31;32.80;101381.94;106154;1273;99216;-71
2022/03/19 02:43:02;;;;;;;85.40;41.30;;;;;;;-2.34;32.68;101380.66;106088;1274;112780;-71
2022/03/19 02:45:31;;;;;;;82.90;40.80;;;;;;;-2.36;33.06;101376.12;106125;1273;99278;-72
2022/03/19 02:47:59;;;;;;;83.50;42.10;;;;;;;-2.34;33.31;101376.67;106152;1273;107163;-71
2022/03/19 02:50:33;;;;;;;89.10;44.40;;;;;;;-2.33;33.37;101382.08;106145;1273;99324;-69
2022/03/19 02:53:04;;;;;;;84.60;42.60;;;;;;;-2.32;33.26;101379.65;106140;1274;96599;-72
2022/03/19 02:55:34;;;;;;;84.90;42.50;;;;;;;-2.31;33.02;101382.80;106101;1273;112713;-71
2022/03/19 02:58:03;;;;;;;90.40;43.10;;;;;;;-2.31;33.39;101388.36;106159;1273;99381;-69
2022/03/19 03:00:32;;;;;;;94.70;46.30;;;;;;;-2.30;33.54;101386.64;106040;1273;107656;-72
2022/03/19 03:03:04;;;;;;;82.90;41.70;;;;;;;-2.29;33.49;101388.06;106093;1274;99327;-71
2022/03/19 03:05:34;;;;;;;83.30;41.80;;;;;;;-2.28;33.39;101385.29;106101;1274;97895;-72
2022/03/19 03:08:04;;;;;;;84.00;41.20;;;;;;;-2.28;33.43;101387.91;106154;1273;112778;-72
2022/03/19 03:10:33;;;;;;;89.20;45.10;;;;;;;-2.27;33.67;101388.10;106188;1273;99253;-71
2022/03/19 03:13:03;;;;;;;82.60;43.30;;;;;;;-2.27;33.63;101389.84;106163;1272;107811;-71
2022/03/19 03:15:32;;;;;;;86.40;45.20;;;;;;;-2.26;33.53;101393.15;106183;1272;96533;-71
2022/03/19 03:18:01;;;;;;;85.50;42.70;;;;;;;-2.26;33.82;101395.23;106188;1273;99291;-70
2022/03/19 03:20:30;;;;;;;80.40;43.10;;;;;;;-2.27;33.65;101399.03;106165;1273;112559;-69
2022/03/19 03:22:58;;;;;;;88.20;45.30;;;;;;;-2.29;33.62;101396.40;106153;1273;99321;-69
2022/03/19 03:25:27;;;;;;;91.90;43.70;;;;;;;-2.28;33.68;101396.94;106152;1273;108287;-70
2022/03/19 03:27:54;;;;;;;92.10;44.70;;;;;;;-2.29;33.98;101391.70;106116;1274;99321;-70
2022/03/19 03:30:22;;;;;;;88.20;43.50;;;;;;;-2.30;33.63;101388.20;106168;1273;99244;-69
2022/03/19 03:32:50;;;;;;;85.60;43.80;;;;;;;-2.32;34.00;101390.09;106076;1273;112708;-69
2022/03/19 03:35:18;;;;;;;87.50;43.00;;;;;;;-2.32;33.88;101396.33;106148;1273;99225;-72
2022/03/19 03:37:45;;;;;;;83.90;43.70;;;;;;;-2.34;34.05;101392.30;105680;1273;585780;-70
2022/03/19 03:40:13;;;;;;;93.30;45.90;;;;;;;-2.37;34.04;101392.77;106107;1273;97767;-73
2022/03/19 03:42:44;;;;;;;83.10;41.90;;;;;;;-2.39;33.83;101393.78;106119;1273;99170;-72
2022/03/19 03:45:11;;;;;;;91.00;45.10;;;;;;;-2.43;33.91;101390.58;106109;1273;112735;-71
2022/03/19 03:47:39;;;;;;;85.80;44.80;;;;;;;-2.47;33.89;101392.44;106196;1273;99404;-70
2022/03/19 03:50:09;;;;;;;88.30;43.90;;;;;;;-2.50;34.00;101398.29;106109;1273;107717;-71
2022/03/19 03:52:37;;;;;;;94.20;47.70;;;;;;;-2.51;34.17;101396.17;106158;1273;99186;-71
2022/03/19 03:55:07;;;;;;;87.30;44.90;;;;;;;-2.53;34.30;101394.39;106131;1273;96609;-71
2022/03/19 03:57:36;;;;;;;87.60;44.50;;;;;;;-2.56;34.14;101391.21;106108;1273;112476;-71
2022/03/19 04:00:08;;;;;;;85.00;44.30;;;;;;;-2.59;34.38;101387.88;106135;1273;99112;-71
2022/03/19 04:02:37;;;;;;;84.70;43.30;;;;;;;-2.61;34.33;101389.38;106183;1273;107807;-71
2022/03/19 04:05:07;;;;;;;82.40;42.50;;;;;;;-2.64;34.48;101390.54;106270;1273;99221;-71
2022/03/19 04:07:35;;;;;;;83.70;42.80;;;;;;;-2.67;34.21;101393.63;106220;1271;99234;-73
2022/03/19 04:10:04;;;;;;;86.70;42.40;;;;;;;-2.71;34.10;101395.45;106174;1273;112766;-69
2022/03/19 04:12:32;;;;;;;88.00;42.60;;;;;;;-2.77;34.16;101400.55;106187;1273;96585;-70
2022/03/19 04:14:59;;;;;;;85.30;43.40;;;;;;;-2.82;34.54;101403.03;106218;1273;107714;-69
2022/03/19 04:17:27;;;;;;;86.90;43.70;;;;;;;-2.86;34.51;101408.55;106115;1273;96975;-70
2022/03/19 04:19:55;;;;;;;87.80;42.70;;;;;;;-2.89;34.59;101413.34;106179;1273;99210;-69
2022/03/19 04:22:23;;;;;;;96.70;43.70;;;;;;;-2.91;34.37;101416.59;106188;1273;112664;-71
2022/03/19 04:24:50;;;;;;;97.30;47.90;;;;;;;-2.96;34.49;101418.41;106188;1273;99298;-71
2022/03/19 04:27:18;;;;;;;94.00;45.90;;;;;;;-2.98;34.60;101422.88;106218;1273;107856;-68
2022/03/19 04:29:46;;;;;;;88.90;46.30;;;;;;;-3.02;34.57;101422.80;106156;1273;99281;-70
2022/03/19 04:32:14;;;;;;;86.50;45.50;;;;;;;-3.07;34.50;101424.61;106144;1273;96536;-70
2022/03/19 04:34:42;;;;;;;102.00;49.50;;;;;;;-3.11;34.80;101424.86;106125;1273;112748;-70
2022/03/19 04:37:10;;;;;;;95.00;46.90;;;;;;;-3.15;34.62;101425.65;106018;1274;99207;-69
2022/03/19 04:39:37;;;;;;;96.20;46.80;;;;;;;-3.18;34.77;101423.32;106147;1273;107747;-72
2022/03/19 04:42:06;;;;;;;99.60;49.80;;;;;;;-3.20;34.78;101425.71;106178;1273;99330;-70
2022/03/19 04:44:34;;;;;;;94.50;48.50;;;;;;;-3.23;34.80;101426.69;106197;1273;99314;-70
2022/03/19 04:47:02;;;;;;;92.40;46.90;;;;;;;-3.26;34.83;101431.66;106088;1274;111653;-71
2022/03/19 04:49:31;;;;;;;94.20;46.60;;;;;;;-3.30;34.60;101432.44;106143;1273;96538;-70
2022/03/19 04:51:58;;;;;;;96.30;47.20;;;;;;;-3.34;34.73;101432.53;106202;1273;107795;-70
2022/03/19 04:54:26;;;;;;;98.30;48.10;;;;;;;-3.37;34.88;101434.02;106139;1273;96631;-72
2022/03/19 04:56:54;;;;;;;90.80;47.20;;;;;;;-3.40;34.98;101436.71;106136;1273;99576;-71
2022/03/19 04:59:22;;;;;;;96.70;48.10;;;;;;;-3.44;34.86;101438.89;106056;1273;112802;-72
2022/03/19 05:01:50;;;;;;;100.10;47.10;;;;;;;-3.48;34.94;101445.41;106024;1273;96562;-72
2022/03/19 05:04:18;;;;;;;96.60;46.60;;;;;;;-3.50;35.16;101447.08;106046;1273;107507;-71
2022/03/19 05:06:46;;;;;;;89.40;43.50;;;;;;;-3.52;35.07;101449.45;106055;1273;96539;-71
2022/03/19 05:12:01;;;;;;;88.80;40.90;;;;;;;-3.54;35.32;101449.92;106126;1273;112885;-71
2022/03/19 05:14:29;;;;;;;84.00;39.90;;;;;;;-3.55;35.40;101453.38;106132;1273;99215;-73
2022/03/19 05:16:56;;;;;;;80.80;40.30;;;;;;;-3.55;35.34;101456.85;105969;1274;107697;-72
2022/03/19 05:19:25;;;;;;;74.00;36.70;;;;;;;-3.53;35.20;101456.73;106028;1273;97533;-72
2022/03/19 05:21:53;;;;;;;74.90;37.70;;;;;;;-3.51;35.39;101459.38;106090;1273;99208;-71
2022/03/19 05:24:20;;;;;;;79.70;39.40;;;;;;;-3.49;35.45;101463.06;106022;1273;113339;-72
2022/03/19 05:26:48;;;;;;;72.40;35.00;;;;;;;-3.48;35.40;101464.48;106235;1274;97272;-71
2022/03/19 05:29:16;;;;;;;79.60;38.90;;;;;;;-3.43;35.55;101469.95;106159;1273;106712;-71
2022/03/19 05:31:47;;;;;;;81.90;38.20;;;;;;;-3.41;35.63;101474.16;106099;1273;99312;-70
2022/03/19 05:34:31;;;;;;;78.90;39.50;;;;;;;-3.39;35.54;101477.01;106079;1273;99885;-72
2022/03/19 05:37:03;;;;;;;80.00;37.20;;;;;;;-3.35;35.82;101482.46;106000;1274;112844;-72
2022/03/19 05:39:33;;;;;;;71.30;34.80;;;;;;;-3.33;35.86;101483.20;106036;1274;99143;-71
2022/03/19 05:42:02;;;;;;;71.50;34.30;;;;;;;-3.31;35.98;101481.19;106192;1274;107755;-70
2022/03/19 05:44:31;;;;;;;63.80;33.80;;;;;;;-3.26;35.99;101485.28;106145;1273;99276;-70
2022/03/19 05:47:00;;;;;;;73.10;33.90;;;;;;;-3.21;36.05;101485.39;106107;1273;99427;-74
2022/03/19 05:49:29;;;;;;;67.60;34.50;;;;;;;-3.17;35.93;101484.95;106070;1273;111745;-72
2022/03/19 05:51:58;;;;;;;66.60;33.70;;;;;;;-3.12;35.92;101485.42;106159;1273;97228;-67
2022/03/19 05:54:26;;;;;;;75.60;37.20;;;;;;;-3.06;36.05;101489.20;106143;1273;107734;-69
2022/03/19 05:56:54;;;;;;;70.30;35.70;;;;;;;-3.02;36.40;101490.68;106122;1274;99310;-68
2022/03/19 05:59:21;;;;;;;72.00;34.10;;;;;;;-2.96;36.40;101493.41;106106;1273;99247;-71
2022/03/19 06:01:50;;;;;;;66.90;35.00;;;;;;;-2.92;36.32;101495.24;106098;1273;112790;-69
2022/03/19 06:04:18;;;;;;;68.70;35.50;;;;;;;-2.87;36.47;101495.88;106072;1274;99325;-70
2022/03/19 06:06:47;;;;;;;72.20;36.70;;;;;;;-2.82;36.29;101495.26;106019;1273;109602;-70
2022/03/19 06:09:14;;;;;;;82.10;41.60;;;;;;;-2.77;36.17;101496.07;106123;1273;99367;-70
2022/03/19 06:11:44;;;;;;;90.70;46.20;;;;;;;-2.71;36.28;101498.79;106068;1273;99244;-70
2022/03/19 06:14:12;;;;;;;85.80;40.50;;;;;;;-2.66;36.45;101499.77;106069;1273;113581;-68
2022/03/19 06:16:40;;;;;;;67.00;33.30;;;;;;;-2.60;36.55;101500.92;106134;1273;99205;-70
2022/03/19 06:19:08;;;;;;;67.80;34.00;;;;;;;-2.53;36.47;101504.73;106126;1272;108080;-71
2022/03/19 06:21:38;;;;;;;67.00;33.20;;;;;;;-2.47;36.52;101502.94;106076;1274;99256;-69
2022/03/19 06:24:09;;;;;;;60.00;31.50;;;;;;;-2.38;36.56;101505.70;106098;1273;99215;-68
2022/03/19 06:26:38;;;;;;;63.60;33.30;;;;;;;-2.31;36.68;101503.95;106085;1273;112448;-68
2022/03/19 06:29:06;;;;;;;57.80;29.40;;;;;;;-2.23;36.86;101502.52;106091;1273;97740;-67
2022/03/19 06:31:34;;;;;;;56.70;29.00;;;;;;;-2.16;36.80;101503.00;106066;1273;108802;-68
2022/03/19 06:34:03;;;;;;;59.10;29.30;;;;;;;-2.08;36.60;101498.46;106115;1273;96542;-69
2022/03/19 06:39:19;;;;;;;52.70;26.90;;;;;;;-1.93;36.94;101504.64;106015;1273;113457;-70
2022/03/19 06:41:47;;;;;;;53.80;28.30;;;;;;;-1.85;36.94;101506.52;106038;1274;99375;-72
2022/03/19 06:44:15;;;;;;;56.20;29.40;;;;;;;-1.78;36.97;101510.13;106103;1273;108356;-69
2022/03/19 06:46:43;;;;;;;54.30;28.00;;;;;;;-1.70;37.31;101513.39;106045;1273;99273;-69
2022/03/19 06:49:11;;;;;;;50.90;28.40;;;;;;;-1.63;37.36;101511.24;106114;1273;99394;-68
2022/03/19 06:51:40;;;;;;;57.00;29.00;;;;;;;-1.56;37.13;101513.63;106087;1273;113327;-70
2022/03/19 06:54:08;;;;;;;53.60;27.70;;;;;;;-1.49;37.46;101512.70;106166;1274;99298;-68
2022/03/19 06:56:36;;;;;;;57.00;27.80;;;;;;;-1.42;37.09;101511.58;106089;1274;108341;-69
2022/03/19 06:59:04;;;;;;;51.80;27.50;;;;;;;-1.36;37.28;101510.98;106105;1273;99200;-67
2022/03/19 07:01:32;;;;;;;58.80;30.00;;;;;;;-1.29;37.45;101512.66;106006;1274;99304;-69
2022/03/19 07:04:00;;;;;;;57.60;30.40;;;;;;;-1.21;37.58;101509.11;105892;1275;113396;-69
2022/03/19 07:06:28;;;;;;;52.20;28.30;;;;;;;-1.13;37.61;101510.11;106014;1274;99262;-66
2022/03/19 07:09:15;;;;;;;54.10;29.70;;;;;;;-1.03;37.53;101509.74;106078;1273;108740;-68
2022/03/19 07:11:43;;;;;;;54.90;29.40;;;;;;;-0.95;37.66;101510.19;106052;1273;99234;-71
2022/03/19 07:14:11;;;;;;;57.80;30.70;;;;;;;-0.87;37.74;101507.51;106149;1273;100367;-69
2022/03/19 07:16:41;;;;;;;59.00;30.70;;;;;;;-0.78;37.97;101513.38;106220;1274;113290;-71
2022/03/19 07:19:11;;;;;;;53.40;28.00;;;;;;;-0.67;38.22;101513.02;105847;1274;99172;-67
2022/03/19 07:21:40;;;;;;;125.80;35.50;;;;;;;-0.54;38.16;101520.13;106022;1273;108188;-70
2022/03/19 07:24:08;;;;;;;56.70;30.30;;;;;;;-0.46;37.79;101516.77;105935;1273;99356;-70
2022/03/19 07:26:36;;;;;;;54.40;30.20;;;;;;;-0.38;38.14;101518.41;105915;1273;96625;-69
2022/03/19 07:29:05;;;;;;;58.70;31.10;;;;;;;-0.32;37.98;101517.27;105948;1273;113193;-71
2022/03/19 07:31:33;;;;;;;54.60;29.00;;;;;;;-0.24;38.13;101515.09;105989;1273;97943;-69
2022/03/19 07:34:01;;;;;;;55.10;29.40;;;;;;;-0.18;38.19;101513.92;105919;1273;107555;-68
2022/03/19 07:36:31;;;;;;;54.70;30.10;;;;;;;-0.10;38.20;101515.42;105962;1273;96688;-70
2022/03/19 07:38:59;;;;;;;60.90;30.10;;;;;;;-0.03;38.12;101516.19;105943;1271;97817;-68
2022/03/19 07:44:13;;;;;;;65.40;35.10;;;;;;;0.14;38.40;101517.58;106125;1273;99792;-70
2022/03/19 07:46:45;;;;;;;63.70;33.10;;;;;;;0.22;38.44;101518.17;106050;1273;108416;-67
2022/03/19 07:49:13;;;;;;;59.40;31.40;;;;;;;0.31;38.56;101514.95;105977;1272;99325;-70
2022/03/19 07:51:41;;;;;;;59.10;31.80;;;;;;;0.42;38.83;101509.10;106135;1273;96532;-70
2022/03/19 07:54:09;;;;;;;51.40;29.80;;;;;;;0.52;38.59;101511.10;105923;1273;113376;-72
2022/03/19 07:56:37;;;;;;;56.80;28.60;;;;;;;0.64;38.69;101513.29;106081;1273;99211;-69
2022/03/19 07:59:04;;;;;;;47.40;26.00;;;;;;;0.80;38.60;101517.95;106067;1273;107557;-70
2022/03/19 08:01:32;;;;;;;49.00;26.20;;;;;;;0.96;38.57;101514.39;106048;1272;99217;-69
2022/03/19 08:04:07;;;;;;;49.10;25.10;;;;;;;1.10;38.64;101511.84;105985;1271;96976;-71
2022/03/19 08:06:36;;;;;;;45.00;22.80;;;;;;;1.25;38.71;101513.67;106105;1274;112731;-69
2022/03/19 08:09:08;;;;;;;43.60;25.00;;;;;;;1.41;38.84;101512.88;106185;1272;99225;-69
2022/03/19 08:11:39;;;;;;;45.30;23.90;;;;;;;1.57;38.85;101511.72;106169;1273;108335;-69
2022/03/19 08:14:07;;;;;;;44.70;22.10;;;;;;;1.75;38.91;101506.89;106055;1272;99325;-69
2022/03/19 08:16:36;;;;;;;43.50;21.90;;;;;;;2.01;39.15;101506.23;106137;1273;99227;-69
2022/03/19 08:19:04;;;;;;;37.60;19.60;;;;;;;2.24;38.74;101509.42;106134;1273;113598;-68
2022/03/19 08:21:31;;;;;;;39.00;19.70;;;;;;;2.44;39.02;101508.57;106150;1273;99243;-69
2022/03/19 08:24:00;;;;;;;34.50;17.90;;;;;;;2.67;38.95;101510.13;106030;1274;108427;-69
2022/03/19 08:26:27;;;;;;;35.30;17.40;;;;;;;2.93;39.19;101503.61;106083;1272;99358;-68
2022/03/19 08:28:55;;;;;;;33.60;16.60;;;;;;;3.15;39.15;101504.09;106103;1273;99212;-66
2022/03/19 08:31:23;;;;;;;34.90;17.20;;;;;;;3.38;38.84;101502.96;106167;1273;113379;-67
2022/03/19 08:33:52;;;;;;;32.80;15.90;;;;;;;3.60;39.24;101497.08;106173;1273;96542;-71
2022/03/19 08:36:20;;;;;;;32.30;15.50;;;;;;;3.80;39.18;101493.65;106178;1273;108596;-71
2022/03/19 08:41:38;;;;;;;30.30;14.80;;;;;;;4.24;39.43;101491.77;105920;1273;99216;-68
2022/03/19 08:44:06;;;;;;;27.80;13.80;;;;;;;4.80;39.39;101492.16;105916;1273;113566;-69
2022/03/19 08:46:34;;;;;;;30.90;13.30;;;;;;;5.69;39.60;101490.27;105979;1272;99321;-68
2022/03/19 08:49:03;;;;;;;31.00;14.40;;;;;;;6.56;39.53;101487.20;107930;1271;108237;-68
2022/03/19 08:51:40;;;;;;;31.10;14.50;;;;;;;7.41;39.53;101482.45;106318;1273;99388;-67
2022/03/19 08:54:09;;;;;;;29.70;13.10;;;;;;;8.22;39.56;101483.30;106344;1273;99208;-67
2022/03/19 08:56:37;;;;;;;26.80;13.10;;;;;;;9.06;39.56;101482.04;106045;1273;113761;-68
2022/03/19 08:59:05;;;;;;;24.50;12.60;;;;;;;9.94;39.76;101481.59;106064;1274;99249;-68
2022/03/19 09:01:33;;;;;;;24.50;11.40;;;;;;;10.71;39.81;101481.59;106033;1273;108464;-68
2022/03/19 09:04:03;;;;;;;25.20;12.30;;;;;;;11.35;39.87;101480.56;106040;1272;99892;-65
2022/03/19 09:06:31;;;;;;;24.80;13.20;;;;;;;11.84;39.90;101474.95;106091;1273;96590;-69
2022/03/19 09:09:01;;;;;;;24.90;11.60;;;;;;;12.09;39.43;101478.65;106021;1273;113339;-66
2022/03/19 09:11:32;;;;;;;24.90;11.00;;;;;;;12.23;39.41;101475.79;106066;1273;99297;-68
2022/03/19 09:14:02;;;;;;;23.80;11.60;;;;;;;12.30;38.63;101473.84;105980;1273;108440;-66
2022/03/19 09:16:32;;;;;;;23.80;11.30;;;;;;;12.24;38.60;101476.77;105954;1273;99235;-68
2022/03/19 09:19:01;;;;;;;24.70;10.90;;;;;;;12.15;38.25;101475.38;105947;1274;99296;-67
2022/03/19 09:21:29;;;;;;;28.50;11.00;;;;;;;12.16;38.42;101472.13;106058;1273;113436;-68
2022/03/19 09:23:58;;;;;;;22.90;11.60;;;;;;;12.04;37.99;101469.95;106008;1273;99255;-69
2022/03/19 09:26:26;;;;;;;23.10;10.30;;;;;;;11.94;37.94;101472.98;106047;1272;108555;-69
2022/03/19 09:28:54;;;;;;;22.90;11.20;;;;;;;12.01;37.72;101473.27;105997;1273;100478;-69
2022/03/19 09:31:21;;;;;;;19.90;8.70;;;;;;;12.05;37.46;101476.67;105981;1273;99208;-69
2022/03/19 09:33:50;;;;;;;22.00;9.30;;;;;;;12.06;37.24;101482.85;106011;1273;113795;-69
2022/03/19 09:36:18;;;;;;;21.00;9.00;;;;;;;12.15;36.73;101485.86;106044;1273;99277;-69
2022/03/19 09:38:46;;;;;;;20.50;8.80;;;;;;;12.28;36.81;101475.90;105995;1273;108375;-68
2022/03/19 09:41:14;;;;;;;18.20;8.50;;;;;;;12.42;36.91;101483.15;106006;1273;98354;-71
2022/03/19 09:43:48;;;;;;;21.60;8.70;;;;;;;12.76;36.49;101481.02;106065;1273;99278;-69
2022/03/19 09:46:18;;;;;;;19.70;9.20;;;;;;;13.08;36.52;101483.20;106023;1273;112662;-68
2022/03/19 09:48:47;;;;;;;26.90;9.00;;;;;;;13.49;36.42;101479.23;105992;1273;99079;-69
2022/03/19 09:51:17;;;;;;;20.80;8.60;;;;;;;13.88;36.34;101478.29;106034;1273;108325;-70
2022/03/19 09:53:47;;;;;;;28.00;14.60;;;;;;;14.13;35.94;101475.88;106078;1273;99294;-69
2022/03/19 09:56:31;;;;;;;24.10;9.20;;;;;;;14.12;35.07;101477.84;105960;1274;96645;-68
2022/03/19 09:58:59;;;;;;;22.00;8.50;;;;;;;13.89;35.19;101476.81;106089;1273;112358;-71
2022/03/19 10:01:31;;;;;;;20.40;8.00;;;;;;;13.67;35.35;101483.77;106000;1273;99246;-69
2022/03/19 10:04:02;;;;;;;20.10;8.90;;;;;;;13.42;34.74;101478.83;105989;1273;107879;-69
2022/03/19 10:09:18;;;;;;;19.20;8.10;;;;;;;12.94;34.36;101476.14;105999;1273;98417;-70
2022/03/19 10:11:51;;;;;;;19.90;9.20;;;;;;;12.71;34.06;101476.94;105963;1274;112487;-70
2022/03/19 10:14:22;;;;;;;23.00;9.60;;;;;;;12.46;33.85;101471.98;106070;1273;99244;-71
2022/03/19 10:16:52;;;;;;;19.30;8.60;;;;;;;12.27;33.68;101476.69;106081;1273;107796;-69
2022/03/19 10:19:21;;;;;;;20.30;8.10;;;;;;;12.23;33.82;101474.91;106046;1273;99287;-67
2022/03/19 10:21:49;;;;;;;21.50;8.70;;;;;;;12.22;33.78;101477.05;106081;1273;99147;-69
2022/03/19 10:24:24;;;;;;;23.00;10.40;;;;;;;12.19;33.92;101476.96;105890;1273;113208;-69
2022/03/19 10:26:54;;;;;;;20.10;8.90;;;;;;;12.16;33.38;101475.36;105966;1273;99230;-69
2022/03/19 10:29:33;;;;;;;19.80;8.30;;;;;;;12.02;33.07;101486.20;105953;1273;108774;-68
2022/03/19 10:32:07;;;;;;;19.60;7.90;;;;;;;11.89;33.21;101485.26;105915;1273;99196;-68
2022/03/19 10:34:40;;;;;;;21.20;8.50;;;;;;;11.76;32.85;101488.98;105986;1273;99298;-69
2022/03/19 10:37:08;;;;;;;18.60;8.10;;;;;;;11.62;32.59;101484.89;106019;1273;113446;-69
2022/03/19 10:39:46;;;;;;;23.60;9.60;;;;;;;11.53;32.71;101489.13;106041;1273;99320;-69
2022/03/19 10:42:15;;;;;;;21.00;8.80;;;;;;;11.52;32.79;101487.92;106043;1273;107715;-72
2022/03/19 10:44:48;;;;;;;68.70;35.20;;;;;;;11.68;32.86;101488.58;106076;1273;99353;-69
2022/03/19 10:47:23;;;;;;;25.70;11.60;;;;;;;11.82;32.66;101491.59;106008;1273;99295;-69
2022/03/19 10:49:50;;;;;;;26.50;9.90;;;;;;;11.76;32.32;101493.60;106014;1273;114711;-66
2022/03/19 10:52:19;;;;;;;22.70;10.10;;;;;;;11.62;32.13;101492.16;106033;1273;97019;-68
2022/03/19 10:54:48;;;;;;;23.00;9.20;;;;;;;11.46;31.91;101490.80;106067;1273;108452;-67
2022/03/19 10:57:16;;;;;;;21.30;9.00;;;;;;;11.34;31.77;101488.61;105978;1273;99345;-67
2022/03/19 10:59:44;;;;;;;23.10;9.90;;;;;;;11.18;31.72;101491.14;106088;1273;99195;-68
2022/03/19 11:02:15;;;;;;;23.10;9.60;;;;;;;11.00;31.57;101486.45;106087;1273;113349;-67
2022/03/19 11:04:46;;;;;;;25.80;10.10;;;;;;;10.92;31.72;101484.96;106020;1273;99241;-69
2022/03/19 11:07:18;;;;;;;23.90;11.10;;;;;;;10.92;31.51;101484.60;106042;1273;108018;-67
2022/03/19 11:09:51;;;;;;;20.50;9.30;;;;;;;10.90;31.47;101481.67;106001;1273;99203;-66
2022/03/19 11:12:21;;;;;;;22.60;10.50;;;;;;;10.83;31.50;101478.88;106060;1274;99092;-69
2022/03/19 11:14:52;;;;;;;19.60;8.90;;;;;;;10.76;31.03;101476.48;106048;1273;112838;-69
2022/03/19 11:17:30;;;;;;;21.50;9.30;;;;;;;10.70;31.26;101471.34;106082;1273;96986;-67
2022/03/19 11:20:05;;;;;;;22.10;9.60;;;;;;;10.62;31.32;101475.17;105883;1273;108359;-68
2022/03/19 11:22:41;;;;;;;25.50;10.00;;;;;;;10.56;30.83;101469.70;105962;1273;97876;-70
2022/03/19 11:25:22;;;;;;;23.10;10.20;;;;;;;10.51;31.14;101470.38;106029;1273;99378;-70